sensor_id;sensor_type;location;lat;lon;timestamp;P1;durP1;ratioP1;P2;durP2;ratioP2
54865;SDS011;40754;52.094;4.328;2023-07-29T01:15:46;9.15;;;2.38;;
54865;SDS011;40754;52.094;4.328;2023-07-29T01:21:38;3.67;;;2.35;;
54865;SDS011;40754;52.094;4.328;2023-07-29T01:24:04;6.13;;;2.33;;
54865;SDS011;40754;52.094;4.328;2023-07-29T01:26:29;5.70;;;2.10;;
54865;SDS011;40754;52.094;4.328;2023-07-29T01:28:56;6.97;;;2.55;;
54865;SDS011;40754;52.094;4.328;2023-07-29T01:31:27;12.85;;;2.47;;
54865;SDS011;40754;52.094;4.328;2023-07-29T01:33:58;9.25;;;2.60;;
54865;SDS011;40754;52.094;4.328;2023-07-29T01:36:28;8.25;;;2.28;;
54865;SDS011;40754;52.094;4.328;2023-07-29T01:38:55;4.72;;;2.40;;
54865;SDS011;40754;52.094;4.328;2023-07-29T01:41:21;5.15;;;2.45;;
54865;SDS011;40754;52.094;4.328;2023-07-29T01:43:47;8.60;;;2.40;;
54865;SDS011;40754;52.094;4.328;2023-07-29T01:46:14;5.78;;;2.75;;
54865;SDS011;40754;52.094;4.328;2023-07-29T01:48:40;8.73;;;2.30;;
54865;SDS011;40754;52.094;4.328;2023-07-29T01:51:06;6.78;;;2.53;;
54865;SDS011;40754;52.094;4.328;2023-07-29T01:53:34;7.43;;;2.80;;
54865;SDS011;40754;52.094;4.328;2023-07-29T01:55:59;7.43;;;2.80;;
54865;SDS011;40754;52.094;4.328;2023-07-29T01:58:25;4.90;;;2.35;;
54865;SDS011;40754;52.094;4.328;2023-07-29T02:00:50;5.07;;;2.67;;
54865;SDS011;40754;52.094;4.328;2023-07-29T02:03:16;5.90;;;2.50;;
54865;SDS011;40754;52.094;4.328;2023-07-29T02:05:42;7.50;;;2.60;;
54865;SDS011;40754;52.094;4.328;2023-07-29T02:08:09;10.98;;;2.65;;
54865;SDS011;40754;52.094;4.328;2023-07-29T02:10:34;3.83;;;2.10;;
54865;SDS011;40754;52.094;4.328;2023-07-29T02:13:00;6.25;;;2.63;;
54865;SDS011;40754;52.094;4.328;2023-07-29T02:15:26;7.07;;;2.80;;
54865;SDS011;40754;52.094;4.328;2023-07-29T02:17:51;6.97;;;2.83;;
54865;SDS011;40754;52.094;4.328;2023-07-29T02:20:17;9.02;;;3.42;;
54865;SDS011;40754;52.094;4.328;2023-07-29T02:22:42;5.47;;;2.83;;
54865;SDS011;40754;52.094;4.328;2023-07-29T02:25:08;7.47;;;2.55;;
54865;SDS011;40754;52.094;4.328;2023-07-29T02:27:35;8.32;;;2.78;;
54865;SDS011;40754;52.094;4.328;2023-07-29T02:30:00;8.18;;;2.78;;
54865;SDS011;40754;52.094;4.328;2023-07-29T02:32:26;6.05;;;2.60;;
54865;SDS011;40754;52.094;4.328;2023-07-29T02:34:51;8.93;;;2.85;;
54865;SDS011;40754;52.094;4.328;2023-07-29T02:37:17;7.93;;;2.80;;
54865;SDS011;40754;52.094;4.328;2023-07-29T02:39:42;6.32;;;2.63;;
54865;SDS011;40754;52.094;4.328;2023-07-29T02:42:08;4.22;;;2.22;;
54865;SDS011;40754;52.094;4.328;2023-07-29T02:44:33;10.20;;;2.70;;
54865;SDS011;40754;52.094;4.328;2023-07-29T02:46:59;6.60;;;2.65;;
54865;SDS011;40754;52.094;4.328;2023-07-29T02:49:24;5.72;;;2.42;;
54865;SDS011;40754;52.094;4.328;2023-07-29T02:51:50;9.15;;;2.80;;
54865;SDS011;40754;52.094;4.328;2023-07-29T02:54:15;7.25;;;2.20;;
54865;SDS011;40754;52.094;4.328;2023-07-29T02:56:40;10.18;;;2.67;;
54865;SDS011;40754;52.094;4.328;2023-07-29T02:59:06;7.65;;;2.55;;
54865;SDS011;40754;52.094;4.328;2023-07-29T03:01:31;4.63;;;2.20;;
54865;SDS011;40754;52.094;4.328;2023-07-29T03:03:57;6.32;;;2.58;;
54865;SDS011;40754;52.094;4.328;2023-07-29T03:06:23;6.32;;;2.72;;
54865;SDS011;40754;52.094;4.328;2023-07-29T03:08:49;8.23;;;2.45;;
54865;SDS011;40754;52.094;4.328;2023-07-29T03:11:15;8.02;;;2.85;;
54865;SDS011;40754;52.094;4.328;2023-07-29T03:13:41;9.50;;;2.90;;
54865;SDS011;40754;52.094;4.328;2023-07-29T03:16:07;10.20;;;2.40;;
54865;SDS011;40754;52.094;4.328;2023-07-29T03:18:34;7.28;;;2.33;;
54865;SDS011;40754;52.094;4.328;2023-07-29T03:21:00;8.05;;;2.60;;
54865;SDS011;40754;52.094;4.328;2023-07-29T03:23:29;9.35;;;2.97;;
54865;SDS011;40754;52.094;4.328;2023-07-29T03:25:56;9.43;;;2.50;;
54865;SDS011;40754;52.094;4.328;2023-07-29T03:28:29;8.48;;;2.35;;
54865;SDS011;40754;52.094;4.328;2023-07-29T03:30:55;6.85;;;2.80;;
54865;SDS011;40754;52.094;4.328;2023-07-29T03:33:21;9.32;;;2.78;;
54865;SDS011;40754;52.094;4.328;2023-07-29T03:35:47;7.30;;;2.50;;
54865;SDS011;40754;52.094;4.328;2023-07-29T03:38:12;8.65;;;2.50;;
54865;SDS011;40754;52.094;4.328;2023-07-29T03:40:38;8.77;;;2.95;;
54865;SDS011;40754;52.094;4.328;2023-07-29T03:43:04;10.30;;;3.20;;
54865;SDS011;40754;52.094;4.328;2023-07-29T03:45:30;9.52;;;3.03;;
54865;SDS011;40754;52.094;4.328;2023-07-29T03:47:59;9.10;;;2.88;;
54865;SDS011;40754;52.094;4.328;2023-07-29T03:50:24;9.95;;;2.90;;
54865;SDS011;40754;52.094;4.328;2023-07-29T03:52:50;11.30;;;3.30;;
54865;SDS011;40754;52.094;4.328;2023-07-29T03:55:16;8.38;;;2.67;;
54865;SDS011;40754;52.094;4.328;2023-07-29T03:57:44;9.30;;;3.17;;
54865;SDS011;40754;52.094;4.328;2023-07-29T04:00:10;11.80;;;3.17;;
54865;SDS011;40754;52.094;4.328;2023-07-29T04:02:36;10.05;;;3.25;;
54865;SDS011;40754;52.094;4.328;2023-07-29T04:05:04;13.77;;;3.03;;
54865;SDS011;40754;52.094;4.328;2023-07-29T04:07:31;6.35;;;2.53;;
54865;SDS011;40754;52.094;4.328;2023-07-29T04:09:56;8.68;;;2.95;;
54865;SDS011;40754;52.094;4.328;2023-07-29T04:12:23;10.32;;;3.10;;
54865;SDS011;40754;52.094;4.328;2023-07-29T04:14:49;10.75;;;3.00;;
54865;SDS011;40754;52.094;4.328;2023-07-29T04:17:15;8.15;;;2.78;;
54865;SDS011;40754;52.094;4.328;2023-07-29T04:19:40;12.85;;;2.75;;
54865;SDS011;40754;52.094;4.328;2023-07-29T04:22:06;8.65;;;2.63;;
54865;SDS011;40754;52.094;4.328;2023-07-29T04:24:32;10.43;;;2.53;;
54865;SDS011;40754;52.094;4.328;2023-07-29T04:26:57;9.45;;;2.97;;
54865;SDS011;40754;52.094;4.328;2023-07-29T04:29:23;8.52;;;2.90;;
54865;SDS011;40754;52.094;4.328;2023-07-29T04:31:49;9.88;;;2.60;;
54865;SDS011;40754;52.094;4.328;2023-07-29T04:34:16;9.00;;;3.08;;
54865;SDS011;40754;52.094;4.328;2023-07-29T04:36:45;9.52;;;2.90;;
54865;SDS011;40754;52.094;4.328;2023-07-29T04:39:11;7.85;;;2.75;;
54865;SDS011;40754;52.094;4.328;2023-07-29T04:41:37;9.85;;;2.60;;
54865;SDS011;40754;52.094;4.328;2023-07-29T04:44:02;8.05;;;2.55;;
54865;SDS011;40754;52.094;4.328;2023-07-29T04:46:28;8.55;;;3.22;;
54865;SDS011;40754;52.094;4.328;2023-07-29T04:48:53;7.25;;;2.80;;
54865;SDS011;40754;52.094;4.328;2023-07-29T04:51:19;8.80;;;2.60;;
54865;SDS011;40754;52.094;4.328;2023-07-29T04:53:44;12.85;;;3.20;;
54865;SDS011;40754;52.094;4.328;2023-07-29T04:56:10;10.40;;;2.63;;
54865;SDS011;40754;52.094;4.328;2023-07-29T04:58:36;8.40;;;2.72;;
54865;SDS011;40754;52.094;4.328;2023-07-29T05:01:02;13.10;;;2.78;;
54865;SDS011;40754;52.094;4.328;2023-07-29T05:03:28;5.40;;;2.38;;
54865;SDS011;40754;52.094;4.328;2023-07-29T05:05:53;9.07;;;2.63;;
54865;SDS011;40754;52.094;4.328;2023-07-29T05:08:20;11.18;;;2.58;;
54865;SDS011;40754;52.094;4.328;2023-07-29T05:10:49;11.48;;;2.63;;
54865;SDS011;40754;52.094;4.328;2023-07-29T05:13:15;7.60;;;2.30;;
54865;SDS011;40754;52.094;4.328;2023-07-29T05:15:44;12.43;;;2.45;;
54865;SDS011;40754;52.094;4.328;2023-07-29T05:18:10;10.35;;;3.00;;
54865;SDS011;40754;52.094;4.328;2023-07-29T05:20:36;7.55;;;2.20;;
54865;SDS011;40754;52.094;4.328;2023-07-29T05:23:02;9.02;;;2.60;;
54865;SDS011;40754;52.094;4.328;2023-07-29T05:25:28;8.80;;;2.65;;
54865;SDS011;40754;52.094;4.328;2023-07-29T05:31:22;11.70;;;2.70;;
54865;SDS011;40754;52.094;4.328;2023-07-29T05:33:55;6.95;;;2.47;;
54865;SDS011;40754;52.094;4.328;2023-07-29T05:36:23;8.98;;;2.20;;
54865;SDS011;40754;52.094;4.328;2023-07-29T05:38:51;9.27;;;2.40;;
54865;SDS011;40754;52.094;4.328;2023-07-29T05:44:27;8.38;;;2.00;;
54865;SDS011;40754;52.094;4.328;2023-07-29T05:47:03;6.38;;;1.98;;
54865;SDS011;40754;52.094;4.328;2023-07-29T05:49:29;7.30;;;2.17;;
54865;SDS011;40754;52.094;4.328;2023-07-29T05:51:55;9.52;;;2.20;;
54865;SDS011;40754;52.094;4.328;2023-07-29T05:56:56;9.23;;;2.17;;
54865;SDS011;40754;52.094;4.328;2023-07-29T05:59:21;10.98;;;2.38;;
54865;SDS011;40754;52.094;4.328;2023-07-29T06:01:49;7.97;;;1.90;;
54865;SDS011;40754;52.094;4.328;2023-07-29T06:04:15;9.02;;;2.47;;
54865;SDS011;40754;52.094;4.328;2023-07-29T06:06:41;7.22;;;2.22;;
54865;SDS011;40754;52.094;4.328;2023-07-29T06:09:06;5.95;;;2.03;;
54865;SDS011;40754;52.094;4.328;2023-07-29T06:11:32;9.75;;;2.42;;
54865;SDS011;40754;52.094;4.328;2023-07-29T06:13:57;13.15;;;2.53;;
54865;SDS011;40754;52.094;4.328;2023-07-29T06:16:23;7.68;;;2.42;;
54865;SDS011;40754;52.094;4.328;2023-07-29T06:18:48;8.00;;;2.20;;
54865;SDS011;40754;52.094;4.328;2023-07-29T06:21:14;8.48;;;2.00;;
54865;SDS011;40754;52.094;4.328;2023-07-29T06:23:42;8.90;;;2.55;;
54865;SDS011;40754;52.094;4.328;2023-07-29T06:26:08;9.45;;;2.10;;
54865;SDS011;40754;52.094;4.328;2023-07-29T06:29:20;12.88;;;2.00;;
54865;SDS011;40754;52.094;4.328;2023-07-29T06:31:46;11.50;;;2.40;;
54865;SDS011;40754;52.094;4.328;2023-07-29T06:34:28;7.03;;;1.95;;
54865;SDS011;40754;52.094;4.328;2023-07-29T06:36:54;9.00;;;2.40;;
54865;SDS011;40754;52.094;4.328;2023-07-29T06:39:23;11.13;;;2.30;;
54865;SDS011;40754;52.094;4.328;2023-07-29T06:41:48;11.07;;;2.35;;
54865;SDS011;40754;52.094;4.328;2023-07-29T06:44:14;7.50;;;1.90;;
54865;SDS011;40754;52.094;4.328;2023-07-29T06:46:39;8.98;;;1.83;;
54865;SDS011;40754;52.094;4.328;2023-07-29T06:49:05;8.13;;;2.25;;
54865;SDS011;40754;52.094;4.328;2023-07-29T06:51:30;5.88;;;2.20;;
54865;SDS011;40754;52.094;4.328;2023-07-29T06:53:59;9.77;;;2.20;;
54865;SDS011;40754;52.094;4.328;2023-07-29T06:56:25;7.68;;;2.13;;
54865;SDS011;40754;52.094;4.328;2023-07-29T06:58:50;5.97;;;2.38;;
54865;SDS011;40754;52.094;4.328;2023-07-29T07:01:16;8.45;;;2.58;;
54865;SDS011;40754;52.094;4.328;2023-07-29T07:03:41;8.20;;;2.55;;
54865;SDS011;40754;52.094;4.328;2023-07-29T07:06:07;9.82;;;2.60;;
54865;SDS011;40754;52.094;4.328;2023-07-29T07:08:35;4.70;;;1.95;;
54865;SDS011;40754;52.094;4.328;2023-07-29T07:11:01;6.57;;;2.33;;
54865;SDS011;40754;52.094;4.328;2023-07-29T07:13:27;9.20;;;2.80;;
54865;SDS011;40754;52.094;4.328;2023-07-29T07:15:56;8.65;;;2.33;;
54865;SDS011;40754;52.094;4.328;2023-07-29T07:18:22;6.90;;;2.20;;
54865;SDS011;40754;52.094;4.328;2023-07-29T07:20:51;6.25;;;1.95;;
54865;SDS011;40754;52.094;4.328;2023-07-29T07:23:17;9.68;;;2.30;;
54865;SDS011;40754;52.094;4.328;2023-07-29T07:25:45;5.78;;;2.33;;
54865;SDS011;40754;52.094;4.328;2023-07-29T07:28:13;9.70;;;2.00;;
54865;SDS011;40754;52.094;4.328;2023-07-29T07:30:48;5.18;;;2.20;;
54865;SDS011;40754;52.094;4.328;2023-07-29T07:33:13;12.02;;;2.10;;
54865;SDS011;40754;52.094;4.328;2023-07-29T07:35:42;10.90;;;2.30;;
54865;SDS011;40754;52.094;4.328;2023-07-29T07:38:13;6.22;;;2.10;;
54865;SDS011;40754;52.094;4.328;2023-07-29T07:40:43;11.23;;;2.15;;
54865;SDS011;40754;52.094;4.328;2023-07-29T07:43:19;9.82;;;2.42;;
54865;SDS011;40754;52.094;4.328;2023-07-29T07:45:44;10.48;;;2.60;;
54865;SDS011;40754;52.094;4.328;2023-07-29T07:48:15;10.18;;;2.60;;
54865;SDS011;40754;52.094;4.328;2023-07-29T07:50:44;13.60;;;2.60;;
54865;SDS011;40754;52.094;4.328;2023-07-29T07:53:15;10.70;;;3.10;;
54865;SDS011;40754;52.094;4.328;2023-07-29T07:59:29;11.18;;;2.58;;
54865;SDS011;40754;52.094;4.328;2023-07-29T08:05:58;14.32;;;2.90;;
54865;SDS011;40754;52.094;4.328;2023-07-29T08:26:39;8.48;;;2.30;;
54865;SDS011;40754;52.094;4.328;2023-07-29T08:29:19;9.32;;;3.22;;
54865;SDS011;40754;52.094;4.328;2023-07-29T08:32:34;12.50;;;2.55;;
54865;SDS011;40754;52.094;4.328;2023-07-29T08:34:59;11.15;;;3.20;;
54865;SDS011;40754;52.094;4.328;2023-07-29T08:50:49;14.65;;;2.50;;
54865;SDS011;40754;52.094;4.328;2023-07-29T08:53:17;12.20;;;2.60;;
54865;SDS011;40754;52.094;4.328;2023-07-29T08:55:47;7.50;;;2.35;;
54865;SDS011;40754;52.094;4.328;2023-07-29T08:58:16;10.80;;;2.72;;
54865;SDS011;40754;52.094;4.328;2023-07-29T09:01:03;10.75;;;2.90;;
54865;SDS011;40754;52.094;4.328;2023-07-29T09:04:01;6.70;;;2.35;;
54865;SDS011;40754;52.094;4.328;2023-07-29T09:10:34;8.55;;;2.58;;
54865;SDS011;40754;52.094;4.328;2023-07-29T09:13:20;6.65;;;2.40;;
54865;SDS011;40754;52.094;4.328;2023-07-29T09:16:16;10.07;;;2.83;;
54865;SDS011;40754;52.094;4.328;2023-07-29T09:19:16;9.85;;;2.63;;
54865;SDS011;40754;52.094;4.328;2023-07-29T09:25:49;7.50;;;2.25;;
54865;SDS011;40754;52.094;4.328;2023-07-29T09:28:39;9.23;;;3.08;;
54865;SDS011;40754;52.094;4.328;2023-07-29T09:31:06;16.75;;;2.55;;
54865;SDS011;40754;52.094;4.328;2023-07-29T09:36:37;7.78;;;2.67;;
54865;SDS011;40754;52.094;4.328;2023-07-29T09:39:03;10.32;;;2.70;;
54865;SDS011;40754;52.094;4.328;2023-07-29T09:41:50;10.93;;;2.83;;
54865;SDS011;40754;52.094;4.328;2023-07-29T09:44:16;10.27;;;2.92;;
54865;SDS011;40754;52.094;4.328;2023-07-29T09:46:45;9.07;;;3.28;;
54865;SDS011;40754;52.094;4.328;2023-07-29T09:49:17;8.52;;;2.65;;
54865;SDS011;40754;52.094;4.328;2023-07-29T09:51:56;11.75;;;3.38;;
54865;SDS011;40754;52.094;4.328;2023-07-29T09:54:30;6.57;;;3.28;;
54865;SDS011;40754;52.094;4.328;2023-07-29T09:56:59;8.60;;;3.00;;
54865;SDS011;40754;52.094;4.328;2023-07-29T10:00:10;7.47;;;2.80;;
54865;SDS011;40754;52.094;4.328;2023-07-29T10:39:53;6.80;;;1.50;;
54865;SDS011;40754;52.094;4.328;2023-07-29T10:42:36;2.60;;;1.42;;
54865;SDS011;40754;52.094;4.328;2023-07-29T10:45:17;5.50;;;1.40;;
54865;SDS011;40754;52.094;4.328;2023-07-29T10:51:21;4.65;;;1.30;;
54865;SDS011;40754;52.094;4.328;2023-07-29T10:56:27;6.72;;;1.55;;
54865;SDS011;40754;52.094;4.328;2023-07-29T11:02:17;7.75;;;2.38;;
54865;SDS011;40754;52.094;4.328;2023-07-29T11:05:58;10.00;;;2.20;;
54865;SDS011;40754;52.094;4.328;2023-07-29T11:28:17;6.40;;;2.00;;
54865;SDS011;40754;52.094;4.328;2023-07-29T11:30:45;5.72;;;1.75;;
54865;SDS011;40754;52.094;4.328;2023-07-29T11:33:18;4.28;;;1.92;;
54865;SDS011;40754;52.094;4.328;2023-07-29T11:36:16;5.07;;;2.20;;
54865;SDS011;40754;52.094;4.328;2023-07-29T11:42:14;5.47;;;1.77;;
54865;SDS011;40754;52.094;4.328;2023-07-29T11:44:57;3.28;;;1.70;;
54865;SDS011;40754;52.094;4.328;2023-07-29T11:48:12;4.63;;;1.50;;
54865;SDS011;40754;52.094;4.328;2023-07-29T11:56:50;6.10;;;2.33;;
54865;SDS011;40754;52.094;4.328;2023-07-29T11:59:19;6.50;;;1.60;;
54865;SDS011;40754;52.094;4.328;2023-07-29T12:01:45;4.90;;;1.90;;
54865;SDS011;40754;52.094;4.328;2023-07-29T12:24:56;4.18;;;1.50;;
54865;SDS011;40754;52.094;4.328;2023-07-29T12:38:00;6.80;;;1.70;;
54865;SDS011;40754;52.094;4.328;2023-07-29T12:40:26;4.68;;;1.83;;
54865;SDS011;40754;52.094;4.328;2023-07-29T12:42:52;3.83;;;1.60;;
54865;SDS011;40754;52.094;4.328;2023-07-29T12:45:21;5.28;;;1.45;;
54865;SDS011;40754;52.094;4.328;2023-07-29T12:47:55;5.30;;;1.70;;
54865;SDS011;40754;52.094;4.328;2023-07-29T12:50:21;4.55;;;1.73;;
54865;SDS011;40754;52.094;4.328;2023-07-29T12:52:47;5.43;;;1.80;;
54865;SDS011;40754;52.094;4.328;2023-07-29T12:55:13;5.30;;;1.92;;
54865;SDS011;40754;52.094;4.328;2023-07-29T12:57:50;5.70;;;1.80;;
54865;SDS011;40754;52.094;4.328;2023-07-29T13:00:26;1.60;;;1.30;;
54865;SDS011;40754;52.094;4.328;2023-07-29T13:02:53;6.20;;;1.83;;
54865;SDS011;40754;52.094;4.328;2023-07-29T13:05:19;2.50;;;1.42;;
54865;SDS011;40754;52.094;4.328;2023-07-29T13:07:50;4.60;;;1.48;;
54865;SDS011;40754;52.094;4.328;2023-07-29T13:10:21;7.50;;;1.88;;
54865;SDS011;40754;52.094;4.328;2023-07-29T13:12:49;4.97;;;1.73;;
54865;SDS011;40754;52.094;4.328;2023-07-29T13:15:25;7.75;;;1.50;;
54865;SDS011;40754;52.094;4.328;2023-07-29T13:17:53;6.60;;;1.55;;
54865;SDS011;40754;52.094;4.328;2023-07-29T13:20:26;6.65;;;2.03;;
54865;SDS011;40754;52.094;4.328;2023-07-29T13:22:55;6.25;;;1.80;;
54865;SDS011;40754;52.094;4.328;2023-07-29T13:25:47;8.32;;;1.95;;
54865;SDS011;40754;52.094;4.328;2023-07-29T13:32:19;5.35;;;1.77;;
54865;SDS011;40754;52.094;4.328;2023-07-29T13:34:58;5.65;;;1.70;;
54865;SDS011;40754;52.094;4.328;2023-07-29T13:37:47;4.22;;;1.40;;
54865;SDS011;40754;52.094;4.328;2023-07-29T13:40:43;4.15;;;2.00;;
54865;SDS011;40754;52.094;4.328;2023-07-29T13:46:44;2.97;;;1.40;;
54865;SDS011;40754;52.094;4.328;2023-07-29T13:49:10;6.28;;;1.83;;
54865;SDS011;40754;52.094;4.328;2023-07-29T13:51:38;3.90;;;1.50;;
54865;SDS011;40754;52.094;4.328;2023-07-29T13:54:32;4.57;;;1.58;;
54865;SDS011;40754;52.094;4.328;2023-07-29T13:57:04;11.43;;;2.08;;
54865;SDS011;40754;52.094;4.328;2023-07-29T14:18:35;8.07;;;2.20;;
54865;SDS011;40754;52.094;4.328;2023-07-29T14:21:02;5.72;;;1.92;;
54865;SDS011;40754;52.094;4.328;2023-07-29T14:23:34;3.88;;;1.80;;
54865;SDS011;40754;52.094;4.328;2023-07-29T14:26:11;4.07;;;1.70;;
54865;SDS011;40754;52.094;4.328;2023-07-29T14:28:37;4.10;;;1.73;;
54865;SDS011;40754;52.094;4.328;2023-07-29T14:31:05;5.35;;;1.83;;
54865;SDS011;40754;52.094;4.328;2023-07-29T14:33:31;4.75;;;1.70;;
54865;SDS011;40754;52.094;4.328;2023-07-29T14:36:02;3.38;;;2.00;;
54865;SDS011;40754;52.094;4.328;2023-07-29T14:38:29;6.13;;;2.10;;
54865;SDS011;40754;52.094;4.328;2023-07-29T14:40:55;11.20;;;2.15;;
54865;SDS011;40754;52.094;4.328;2023-07-29T14:43:27;4.50;;;1.80;;
54865;SDS011;40754;52.094;4.328;2023-07-29T14:45:53;8.38;;;2.10;;
54865;SDS011;40754;52.094;4.328;2023-07-29T14:48:19;7.47;;;1.92;;
54865;SDS011;40754;52.094;4.328;2023-07-29T14:50:50;7.15;;;1.90;;
54865;SDS011;40754;52.094;4.328;2023-07-29T14:53:19;7.53;;;2.35;;
54865;SDS011;40754;52.094;4.328;2023-07-29T14:55:45;6.57;;;1.80;;
54865;SDS011;40754;52.094;4.328;2023-07-29T14:58:11;7.43;;;2.17;;
54865;SDS011;40754;52.094;4.328;2023-07-29T15:00:38;6.10;;;1.92;;
54865;SDS011;40754;52.094;4.328;2023-07-29T15:03:08;8.35;;;2.17;;
54865;SDS011;40754;52.094;4.328;2023-07-29T15:30:07;8.18;;;2.50;;
54865;SDS011;40754;52.094;4.328;2023-07-29T15:32:37;12.05;;;2.35;;
54865;SDS011;40754;52.094;4.328;2023-07-29T15:38:11;8.35;;;2.63;;
54865;SDS011;40754;52.094;4.328;2023-07-29T15:47:29;11.90;;;2.58;;
54865;SDS011;40754;52.094;4.328;2023-07-29T15:56:41;7.47;;;2.55;;
54865;SDS011;40754;52.094;4.328;2023-07-29T15:59:29;9.13;;;2.50;;
54865;SDS011;40754;52.094;4.328;2023-07-29T16:05:26;7.78;;;2.42;;
54865;SDS011;40754;52.094;4.328;2023-07-29T16:08:14;8.63;;;2.38;;
54865;SDS011;40754;52.094;4.328;2023-07-29T16:17:32;7.25;;;2.70;;
54865;SDS011;40754;52.094;4.328;2023-07-29T16:23:27;13.00;;;2.92;;
54865;SDS011;40754;52.094;4.328;2023-07-29T17:24:14;14.88;;;3.55;;
54865;SDS011;40754;52.094;4.328;2023-07-29T17:26:39;18.65;;;4.43;;
54865;SDS011;40754;52.094;4.328;2023-07-29T17:29:05;10.20;;;3.55;;
54865;SDS011;40754;52.094;4.328;2023-07-29T17:31:32;12.68;;;3.33;;
54865;SDS011;40754;52.094;4.328;2023-07-29T17:34:03;15.07;;;4.60;;
54865;SDS011;40754;52.094;4.328;2023-07-29T17:36:31;15.63;;;4.93;;
54865;SDS011;40754;52.094;4.328;2023-07-29T17:39:00;15.18;;;4.13;;
54865;SDS011;40754;52.094;4.328;2023-07-29T17:41:27;17.85;;;4.85;;
54865;SDS011;40754;52.094;4.328;2023-07-29T17:43:56;15.50;;;4.05;;
54865;SDS011;40754;52.094;4.328;2023-07-29T17:46:33;13.68;;;3.97;;
54865;SDS011;40754;52.094;4.328;2023-07-29T17:51:44;16.85;;;4.22;;
54865;SDS011;40754;52.094;4.328;2023-07-29T17:54:18;15.85;;;4.45;;
54865;SDS011;40754;52.094;4.328;2023-07-29T17:56:44;17.33;;;4.65;;
54865;SDS011;40754;52.094;4.328;2023-07-29T17:59:09;14.40;;;4.32;;
54865;SDS011;40754;52.094;4.328;2023-07-29T18:01:35;17.88;;;4.30;;
54865;SDS011;40754;52.094;4.328;2023-07-29T18:04:04;17.10;;;4.47;;
54865;SDS011;40754;52.094;4.328;2023-07-29T18:06:32;16.40;;;4.38;;
54865;SDS011;40754;52.094;4.328;2023-07-29T18:08:57;15.25;;;4.47;;
54865;SDS011;40754;52.094;4.328;2023-07-29T18:11:23;15.98;;;3.72;;
54865;SDS011;40754;52.094;4.328;2023-07-29T18:13:48;18.50;;;4.28;;
54865;SDS011;40754;52.094;4.328;2023-07-29T18:16:14;17.38;;;4.35;;
54865;SDS011;40754;52.094;4.328;2023-07-29T18:18:44;14.23;;;3.70;;
54865;SDS011;40754;52.094;4.328;2023-07-29T18:21:13;21.67;;;4.32;;
54865;SDS011;40754;52.094;4.328;2023-07-29T18:23:41;18.83;;;5.05;;
54865;SDS011;40754;52.094;4.328;2023-07-29T18:26:07;17.08;;;4.32;;
54865;SDS011;40754;52.094;4.328;2023-07-29T18:28:32;23.38;;;5.03;;
54865;SDS011;40754;52.094;4.328;2023-07-29T18:30:58;22.75;;;4.80;;
54865;SDS011;40754;52.094;4.328;2023-07-29T18:33:23;24.00;;;5.10;;
54865;SDS011;40754;52.094;4.328;2023-07-29T18:35:52;21.02;;;4.75;;
54865;SDS011;40754;52.094;4.328;2023-07-29T18:38:18;20.58;;;4.57;;
54865;SDS011;40754;52.094;4.328;2023-07-29T18:40:43;14.77;;;4.43;;
54865;SDS011;40754;52.094;4.328;2023-07-29T18:43:09;21.85;;;4.95;;
54865;SDS011;40754;52.094;4.328;2023-07-29T18:45:35;24.95;;;5.03;;
54865;SDS011;40754;52.094;4.328;2023-07-29T18:48:00;22.35;;;5.43;;
54865;SDS011;40754;52.094;4.328;2023-07-29T18:50:26;23.50;;;5.05;;
54865;SDS011;40754;52.094;4.328;2023-07-29T18:52:52;20.65;;;4.90;;
54865;SDS011;40754;52.094;4.328;2023-07-29T18:55:19;21.92;;;4.82;;
54865;SDS011;40754;52.094;4.328;2023-07-29T18:57:44;21.42;;;4.85;;
54865;SDS011;40754;52.094;4.328;2023-07-29T19:00:10;23.55;;;4.78;;
54865;SDS011;40754;52.094;4.328;2023-07-29T19:02:39;26.08;;;5.63;;
54865;SDS011;40754;52.094;4.328;2023-07-29T19:05:06;27.92;;;5.25;;
54865;SDS011;40754;52.094;4.328;2023-07-29T19:07:34;22.38;;;4.75;;
54865;SDS011;40754;52.094;4.328;2023-07-29T19:10:00;24.08;;;6.00;;
54865;SDS011;40754;52.094;4.328;2023-07-29T19:12:26;21.95;;;5.10;;
54865;SDS011;40754;52.094;4.328;2023-07-29T19:14:52;15.40;;;4.53;;
54865;SDS011;40754;52.094;4.328;2023-07-29T19:17:18;19.23;;;4.93;;
54865;SDS011;40754;52.094;4.328;2023-07-29T19:19:47;24.88;;;5.35;;
54865;SDS011;40754;52.094;4.328;2023-07-29T19:22:15;25.70;;;5.28;;
54865;SDS011;40754;52.094;4.328;2023-07-29T19:24:41;24.95;;;5.32;;
54865;SDS011;40754;52.094;4.328;2023-07-29T19:27:06;22.15;;;5.68;;
54865;SDS011;40754;52.094;4.328;2023-07-29T19:29:32;20.88;;;4.75;;
54865;SDS011;40754;52.094;4.328;2023-07-29T19:31:58;22.17;;;5.18;;
54865;SDS011;40754;52.094;4.328;2023-07-29T19:34:27;25.15;;;6.10;;
54865;SDS011;40754;52.094;4.328;2023-07-29T19:36:53;28.02;;;5.47;;
54865;SDS011;40754;52.094;4.328;2023-07-29T19:39:18;29.30;;;5.13;;
54865;SDS011;40754;52.094;4.328;2023-07-29T19:41:44;23.33;;;5.97;;
54865;SDS011;40754;52.094;4.328;2023-07-29T19:44:09;20.58;;;5.05;;
54865;SDS011;40754;52.094;4.328;2023-07-29T19:46:35;23.77;;;4.72;;
54865;SDS011;40754;52.094;4.328;2023-07-29T19:49:00;24.17;;;6.00;;
54865;SDS011;40754;52.094;4.328;2023-07-29T19:51:26;27.08;;;5.50;;
54865;SDS011;40754;52.094;4.328;2023-07-29T19:53:52;24.77;;;5.53;;
54865;SDS011;40754;52.094;4.328;2023-07-29T19:56:17;25.98;;;5.60;;
54865;SDS011;40754;52.094;4.328;2023-07-29T19:58:43;27.88;;;6.22;;
54865;SDS011;40754;52.094;4.328;2023-07-29T20:01:09;27.38;;;5.50;;
54865;SDS011;40754;52.094;4.328;2023-07-29T20:03:36;31.65;;;6.25;;
54865;SDS011;40754;52.094;4.328;2023-07-29T20:06:02;26.85;;;6.22;;
54865;SDS011;40754;52.094;4.328;2023-07-29T20:08:28;30.65;;;5.80;;
54865;SDS011;40754;52.094;4.328;2023-07-29T20:10:56;22.70;;;5.40;;
54865;SDS011;40754;52.094;4.328;2023-07-29T20:13:25;22.10;;;5.15;;
54865;SDS011;40754;52.094;4.328;2023-07-29T20:15:53;28.27;;;5.80;;
54865;SDS011;40754;52.094;4.328;2023-07-29T20:18:19;29.35;;;5.70;;
54865;SDS011;40754;52.094;4.328;2023-07-29T20:20:47;23.20;;;5.65;;
54865;SDS011;40754;52.094;4.328;2023-07-29T20:23:15;26.83;;;5.78;;
54865;SDS011;40754;52.094;4.328;2023-07-29T20:25:40;24.17;;;5.03;;
54865;SDS011;40754;52.094;4.328;2023-07-29T20:28:09;25.38;;;4.70;;
54865;SDS011;40754;52.094;4.328;2023-07-29T20:30:38;26.73;;;5.13;;
54865;SDS011;40754;52.094;4.328;2023-07-29T20:33:08;19.48;;;4.82;;
54865;SDS011;40754;52.094;4.328;2023-07-29T20:35:33;36.15;;;6.18;;
54865;SDS011;40754;52.094;4.328;2023-07-29T20:37:59;25.08;;;5.57;;
54865;SDS011;40754;52.094;4.328;2023-07-29T20:40:24;24.77;;;5.35;;
54865;SDS011;40754;52.094;4.328;2023-07-29T20:42:50;23.30;;;4.97;;
54865;SDS011;40754;52.094;4.328;2023-07-29T20:45:15;21.88;;;5.18;;
54865;SDS011;40754;52.094;4.328;2023-07-29T20:47:41;27.95;;;5.68;;
54865;SDS011;40754;52.094;4.328;2023-07-29T20:50:07;23.30;;;5.28;;
54865;SDS011;40754;52.094;4.328;2023-07-29T20:52:32;28.05;;;5.25;;
54865;SDS011;40754;52.094;4.328;2023-07-29T20:55:00;24.20;;;5.32;;
54865;SDS011;40754;52.094;4.328;2023-07-29T20:57:29;21.38;;;4.68;;
54865;SDS011;40754;52.094;4.328;2023-07-29T20:59:57;23.58;;;4.95;;
54865;SDS011;40754;52.094;4.328;2023-07-29T21:02:26;22.00;;;5.03;;
54865;SDS011;40754;52.094;4.328;2023-07-29T21:04:51;20.90;;;4.85;;
54865;SDS011;40754;52.094;4.328;2023-07-29T21:07:17;24.48;;;5.88;;
54865;SDS011;40754;52.094;4.328;2023-07-29T21:09:42;27.50;;;5.50;;
54865;SDS011;40754;52.094;4.328;2023-07-29T21:12:08;21.85;;;5.43;;
54865;SDS011;40754;52.094;4.328;2023-07-29T21:14:36;24.00;;;5.85;;
54865;SDS011;40754;52.094;4.328;2023-07-29T21:17:02;31.88;;;6.05;;
54865;SDS011;40754;52.094;4.328;2023-07-29T21:19:28;33.20;;;5.82;;
54865;SDS011;40754;52.094;4.328;2023-07-29T21:21:53;24.45;;;5.07;;